Time;durP1;ratioP1;P1;durP2;ratioP2;P2;SDS_P1;SDS_P2;PMS_P1;PMS_P2;Temp;Humidity;BMP_temperature;BMP_pressure;BME280_temperature;BME280_humidity;BME280_pressure;Samples;Min_cycle;Max_cycle;Signal;HPM_P1;HPM_P2
2022/08/11 00:01:52;;;;;;;2.50;1.42;;;20.30;63.20;;;;;;5033562;28;20060;-78
2022/08/11 00:04:20;;;;;;;2.33;1.50;;;20.30;63.30;;;;;;5027822;28;20079;-79
2022/08/11 00:06:47;;;;;;;3.88;1.50;;;20.30;63.40;;;;;;5032388;28;20089;-79
2022/08/11 00:09:20;;;;;;;2.15;1.35;;;20.20;63.50;;;;;;5037750;28;20104;-79
2022/08/11 00:11:48;;;;;;;4.23;1.67;;;20.20;63.70;;;;;;5047183;28;20083;-78
2022/08/11 00:14:27;;;;;;;1.65;1.40;;;20.10;63.90;;;;;;5049265;28;20022;-78
2022/08/11 00:16:56;;;;;;;1.33;1.20;;;20.10;64.00;;;;;;5030168;28;20040;-77
2022/08/11 00:19:25;;;;;;;2.45;1.40;;;20.10;64.00;;;;;;5032516;28;20025;-78
2022/08/11 00:21:53;;;;;;;3.10;1.58;;;20.10;64.10;;;;;;5034075;28;20544;-78
2022/08/11 00:24:20;;;;;;;2.17;1.38;;;20.10;64.30;;;;;;5032934;28;20049;-78
2022/08/11 00:26:50;;;;;;;2.00;1.27;;;20.00;64.30;;;;;;5037418;28;20030;-78
2022/08/11 00:29:16;;;;;;;2.75;1.30;;;20.10;64.50;;;;;;5030667;28;20064;-78
2022/08/11 00:31:49;;;;;;;3.60;1.30;;;20.00;64.50;;;;;;5029763;28;20041;-79
2022/08/11 00:34:21;;;;;;;2.72;1.75;;;20.00;64.50;;;;;;5034541;28;20106;-77
2022/08/11 00:37:18;;;;;;;3.20;1.60;;;20.00;64.50;;;;;;5037026;28;20025;-78
2022/08/11 00:39:47;;;;;;;3.50;1.60;;;19.90;64.80;;;;;;5031180;28;20087;-78
2022/08/11 00:42:31;;;;;;;3.03;1.60;;;19.90;64.80;;;;;;5033790;28;20072;-78
2022/08/11 00:45:24;;;;;;;3.72;1.75;;;19.90;65.00;;;;;;5033698;28;20549;-78
2022/08/11 00:48:05;;;;;;;2.78;1.50;;;19.90;65.10;;;;;;5031530;28;20563;-78
2022/08/11 00:50:49;;;;;;;3.17;1.77;;;19.80;65.00;;;;;;5047807;28;20428;-78
2022/08/11 00:53:34;;;;;;;3.70;1.38;;;19.80;65.30;;;;;;5033094;28;20034;-78
2022/08/11 00:56:02;;;;;;;4.50;1.80;;;19.80;65.30;;;;;;5029083;28;20029;-78
2022/08/11 00:58:55;;;;;;;3.75;1.50;;;19.80;65.50;;;;;;5029493;28;20033;-78
2022/08/11 01:01:32;;;;;;;3.67;1.38;;;19.80;65.70;;;;;;5042859;28;20049;-78
2022/08/11 01:04:13;;;;;;;3.00;1.83;;;19.80;65.60;;;;;;5030634;28;20034;-78
2022/08/11 01:07:09;;;;;;;3.58;1.92;;;19.70;65.70;;;;;;5046469;28;20516;-78
2022/08/11 01:09:44;;;;;;;3.88;1.58;;;19.70;65.70;;;;;;5047679;28;20037;-78
2022/08/11 01:12:28;;;;;;;2.25;1.45;;;19.70;65.80;;;;;;5043130;28;20030;-77
2022/08/11 01:15:18;;;;;;;;;;;19.70;66.00;;;;;;5033900;28;20465;-78
2022/08/11 01:18:15;;;;;;;2.58;1.25;;;19.70;66.30;;;;;;5029986;28;19940;-77
2022/08/11 01:21:15;;;;;;;3.08;1.95;;;19.70;66.10;;;;;;5031286;28;20035;-77
2022/08/11 01:24:38;;;;;;;2.60;1.65;;;19.70;66.40;;;;;;5045198;28;20374;-78
2022/08/11 01:27:17;;;;;;;2.90;1.60;;;19.70;66.40;;;;;;5004737;28;20047;-77
2022/08/11 01:30:07;;;;;;;2.95;1.90;;;19.60;66.50;;;;;;5005520;28;20064;-79
2022/08/11 01:33:06;;;;;;;4.15;1.60;;;19.60;66.60;;;;;;5018032;28;20559;-78
2022/08/11 01:35:57;;;;;;;4.70;1.95;;;19.60;66.70;;;;;;5032560;28;20033;-78
2022/08/11 01:38:44;;;;;;;4.40;1.80;;;19.60;66.70;;;;;;5030528;28;20041;-76
2022/08/11 01:44:46;;;;;;;4.78;1.88;;;19.50;67.10;;;;;;5037816;28;20032;-78
2022/08/11 01:47:56;;;;;;;4.70;2.15;;;19.50;67.30;;;;;;5030165;28;20083;-78
2022/08/11 01:50:36;;;;;;;4.70;1.63;;;19.50;67.30;;;;;;5029705;28;20132;-77
2022/08/11 01:53:35;;;;;;;4.57;2.10;;;19.50;68.20;;;;;;5046127;28;20025;-77
2022/08/11 01:56:22;;;;;;;3.20;1.58;;;19.40;67.50;;;;;;5029409;28;20037;-77
2022/08/11 01:59:16;;;;;;;3.65;1.92;;;19.40;67.70;;;;;;5044363;28;20498;-77
2022/08/11 02:02:10;;;;;;;5.63;1.70;;;19.40;67.80;;;;;;5029236;28;20021;-78
2022/08/11 02:04:57;;;;;;;4.07;2.25;;;19.40;67.80;;;;;;5046520;28;20034;-77
2022/08/11 02:07:37;;;;;;;3.40;1.80;;;19.40;67.90;;;;;;5032807;28;20091;-78
2022/08/11 02:13:48;;;;;;;3.00;1.90;;;19.40;68.80;;;;;;5030914;28;20029;-78
2022/08/11 02:16:39;;;;;;;4.60;2.42;;;19.30;69.20;;;;;;5032461;28;20085;-77
2022/08/11 02:25:10;;;;;;;3.28;2.22;;;19.10;70.00;;;;;;5031965;28;20052;-77
2022/08/11 02:27:54;;;;;;;5.40;2.10;;;19.00;70.30;;;;;;5029605;28;20029;-77
2022/08/11 02:30:24;;;;;;;3.45;1.75;;;19.00;70.60;;;;;;5026695;28;20025;-77
2022/08/11 02:36:26;;;;;;;4.25;2.28;;;18.90;70.90;;;;;;5028967;28;20079;-77
2022/08/11 02:39:07;;;;;;;5.22;2.05;;;18.80;71.30;;;;;;5025142;28;20029;-77
2022/08/11 02:45:10;;;;;;;4.45;1.85;;;18.70;71.50;;;;;;5026760;28;20056;-76
2022/08/11 02:50:41;;;;;;;4.20;1.98;;;18.60;72.00;;;;;;5025374;28;20025;-76
2022/08/11 02:53:12;;;;;;;5.65;2.42;;;18.60;72.10;;;;;;5026451;28;20029;-78
2022/08/11 02:55:45;;;;;;;4.18;2.00;;;18.50;72.40;;;;;;5031523;28;20033;-76
2022/08/11 02:58:22;;;;;;;3.47;2.42;;;18.50;72.50;;;;;;5043455;28;20029;-77
2022/08/11 03:01:10;;;;;;;2.72;1.98;;;18.40;72.60;;;;;;5033180;28;20036;-78
2022/08/11 03:04:00;;;;;;;4.10;2.40;;;18.40;72.80;;;;;;5030422;28;20026;-77
2022/08/11 03:06:45;;;;;;;3.53;1.98;;;18.40;73.20;;;;;;5030412;28;20032;-78
2022/08/11 03:09:22;;;;;;;4.65;2.22;;;18.30;73.50;;;;;;5027412;28;20036;-78
2022/08/11 03:18:23;;;;;;;4.82;2.45;;;18.20;74.00;;;;;;5033405;28;20032;-76
2022/08/11 03:21:16;;;;;;;5.85;2.65;;;18.10;74.10;;;;;;5030372;28;20061;-76
2022/08/11 03:24:07;;;;;;;5.05;2.63;;;18.10;74.10;;;;;;5029023;28;20036;-77
2022/08/11 03:27:05;;;;;;;6.75;2.63;;;18.10;74.20;;;;;;5029184;28;20488;-76
2022/08/11 03:29:46;;;;;;;5.93;2.40;;;18.00;74.30;;;;;;5032087;28;20040;-76
2022/08/11 03:32:41;;;;;;;5.10;2.17;;;18.00;74.40;;;;;;5026944;28;20022;-76
2022/08/11 03:35:09;;;;;;;4.90;2.28;;;18.00;74.60;;;;;;5031580;28;20051;-76
2022/08/11 03:38:01;;;;;;;3.17;2.20;;;18.00;74.70;;;;;;5030270;28;20377;-76
2022/08/11 03:44:08;;;;;;;7.72;3.70;;;17.90;75.10;;;;;;5035556;28;20040;-77
2022/08/11 03:47:11;;;;;;;6.00;3.30;;;17.90;75.30;;;;;;5051759;28;20061;-77
2022/08/11 03:49:49;;;;;;;6.85;3.20;;;17.80;75.60;;;;;;5028787;28;20033;-77
2022/08/11 03:52:31;;;;;;;8.60;3.10;;;17.80;75.60;;;;;;5032144;28;20033;-77
2022/08/11 03:55:20;;;;;;;6.32;2.78;;;17.80;75.70;;;;;;5033067;28;20025;-77
2022/08/11 03:58:20;;;;;;;7.38;3.20;;;17.70;75.70;;;;;;5038218;28;20033;-77
2022/08/11 04:01:10;;;;;;;4.95;2.65;;;17.70;75.80;;;;;;5038774;28;20079;-77
2022/08/11 04:04:11;;;;;;;3.60;2.60;;;17.70;76.00;;;;;;5038179;28;20021;-77
2022/08/11 04:06:52;;;;;;;4.90;2.70;;;17.70;76.30;;;;;;5036708;28;20030;-77
2022/08/11 04:09:39;;;;;;;5.13;2.60;;;17.60;76.20;;;;;;5052974;28;20032;-78
2022/08/11 04:12:14;;;;;;;7.47;3.03;;;17.60;76.50;;;;;;5033048;28;20120;-77
2022/08/11 04:18:43;;;;;;;5.40;3.30;;;17.50;77.00;;;;;;5033214;28;20121;-76
2022/08/11 04:21:50;;;;;;;4.13;3.10;;;17.50;77.20;;;;;;5024793;28;20038;-77
2022/08/11 04:24:25;;;;;;;5.40;3.40;;;17.50;77.30;;;;;;5031781;28;20075;-78
2022/08/11 04:26:52;;;;;;;3.78;2.83;;;17.40;77.40;;;;;;5033843;28;20505;-76
2022/08/11 04:29:36;;;;;;;6.43;3.33;;;17.40;77.60;;;;;;5032329;28;20053;-77
2022/08/11 04:32:39;;;;;;;4.75;2.95;;;17.30;77.70;;;;;;5031657;28;20044;-77
2022/08/11 04:35:18;;;;;;;3.47;2.70;;;17.20;78.10;;;;;;5031140;28;20517;-76
2022/08/11 04:37:46;;;;;;;5.90;3.63;;;17.30;78.30;;;;;;5029040;28;20025;-76
2022/08/11 04:40:49;;;;;;;6.18;3.40;;;17.20;78.40;;;;;;5032273;28;20033;-77
2022/08/11 04:43:30;;;;;;;8.95;3.38;;;17.20;78.50;;;;;;5035560;28;20025;-77
2022/08/11 04:46:12;;;;;;;4.43;3.03;;;17.20;78.30;;;;;;5032055;28;20422;-76
2022/08/11 05:01:55;;;;;;;;;;;17.30;78.50;;;;;;5029286;28;20040;-77
2022/08/11 05:07:51;;;;;;;8.52;3.95;;;17.30;78.30;;;;;;5027520;28;20406;-77
2022/08/11 05:10:47;;;;;;;6.20;4.53;;;17.40;78.30;;;;;;5031405;28;20112;-77
2022/08/11 05:36:35;;;;;;;6.43;4.07;;;18.80;75.40;;;;;;5029322;28;20029;-70
2022/08/11 06:01:29;;;;;;;11.60;3.60;;;20.40;71.40;;;;;;4990284;28;20063;-72
2022/08/11 06:04:15;;;;;;;10.05;3.65;;;20.50;71.00;;;;;;4991866;28;20238;-73
2022/08/11 06:06:51;;;;;;;7.00;3.80;;;20.60;70.80;;;;;;4993302;28;20073;-71
2022/08/11 06:09:43;;;;;;;7.18;3.47;;;20.70;70.50;;;;;;4991169;28;20049;-72
2022/08/11 06:12:36;;;;;;;7.28;3.65;;;20.90;70.10;;;;;;5002759;28;20038;-72
2022/08/11 06:15:10;;;;;;;9.77;3.78;;;20.90;70.10;;;;;;5006436;28;20772;-73
2022/08/11 06:17:45;;;;;;;5.20;3.53;;;21.00;70.20;;;;;;5010343;28;20029;-73
2022/08/11 06:20:12;;;;;;;4.85;3.35;;;21.00;70.20;;;;;;5007330;28;20620;-72
2022/08/11 06:22:45;;;;;;;17.95;3.47;;;20.90;70.20;;;;;;5011994;28;20394;-73
2022/08/11 06:25:12;;;;;;;8.77;3.17;;;20.90;70.30;;;;;;5008901;28;20108;-73
2022/08/11 06:27:40;;;;;;;5.65;2.92;;;20.90;69.80;;;;;;5005900;28;20033;-73
2022/08/11 06:30:13;;;;;;;6.55;2.65;;;20.80;69.70;;;;;;4998711;28;20498;-71
2022/08/11 06:32:54;;;;;;;3.90;2.75;;;20.80;70.10;;;;;;5007520;28;20116;-74
2022/08/11 06:35:44;;;;;;;5.55;2.92;;;20.80;70.20;;;;;;5005006;28;20053;-73
2022/08/11 06:38:19;;;;;;;5.93;3.00;;;20.80;70.30;;;;;;5005269;28;20429;-73
2022/08/11 06:43:58;;;;;;;5.32;3.05;;;20.80;70.40;;;;;;5008585;28;20079;-72
2022/08/11 06:46:28;;;;;;;6.50;3.15;;;20.80;70.60;;;;;;5002863;28;20029;-73
2022/08/11 06:48:55;;;;;;;5.78;2.20;;;20.80;70.60;;;;;;5002636;28;20034;-73
2022/08/11 06:51:21;;;;;;;6.15;2.50;;;20.90;70.70;;;;;;5003153;28;20025;-72
2022/08/11 06:53:56;;;;;;;6.60;2.90;;;20.90;70.50;;;;;;5008096;28;20022;-72
2022/08/11 07:02:10;;;;;;;7.10;3.10;;;20.90;70.60;;;;;;5007054;28;20168;-73
2022/08/11 07:04:38;;;;;;;9.43;2.78;;;20.90;70.70;;;;;;5011528;28;20026;-73
2022/08/11 07:15:49;;;;;;;3.13;2.45;;;21.10;70.30;;;;;;5003045;28;20042;-76
2022/08/11 07:29:44;;;;;;;7.53;3.00;;;21.40;69.70;;;;;;5014787;28;20084;-76
2022/08/11 07:32:22;;;;;;;5.85;2.45;;;21.40;69.60;;;;;;5011099;28;20030;-75
2022/08/11 07:34:54;;;;;;;6.63;2.67;;;21.50;69.60;;;;;;5008137;28;20037;-76
2022/08/11 07:37:24;;;;;;;5.80;2.70;;;21.50;69.40;;;;;;5009165;28;20550;-76
2022/08/11 07:39:52;;;;;;;7.32;3.30;;;21.60;69.20;;;;;;5001848;28;20046;-76
2022/08/11 07:42:22;;;;;;;12.32;3.35;;;21.70;69.20;;;;;;5010193;28;20022;-75
2022/08/11 07:53:05;;;;;;;6.03;2.50;;;21.90;69.00;;;;;;5011815;28;20394;-75
2022/08/11 07:55:33;;;;;;;5.47;2.85;;;21.90;69.00;;;;;;5009350;28;20032;-76
2022/08/11 08:17:56;;;;;;;6.55;2.28;;;22.60;67.10;;;;;;5010910;28;20165;-76
2022/08/11 08:20:28;;;;;;;4.30;2.40;;;22.70;64.70;;;;;;5002766;28;20045;-77
2022/08/11 08:22:57;;;;;;;5.70;2.38;;;22.80;65.50;;;;;;5007282;28;20034;-77
2022/08/11 08:25:25;;;;;;;5.93;2.25;;;22.90;65.00;;;;;;5013693;28;20149;-76
2022/08/11 08:27:52;;;;;;;8.82;2.63;;;23.00;65.70;;;;;;5009624;28;20113;-76
2022/08/11 08:33:03;;;;;;;8.23;3.33;;;23.20;65.30;;;;;;5006791;28;20433;-77
2022/08/11 08:35:29;;;;;;;4.03;2.13;;;23.30;65.40;;;;;;5004490;28;20038;-75
2022/08/11 08:37:56;;;;;;;4.55;2.00;;;23.30;63.50;;;;;;5007951;28;20478;-76
2022/08/11 08:40:21;;;;;;;8.63;2.10;;;23.40;58.90;;;;;;5006508;28;20528;-76
2022/08/11 08:43:02;;;;;;;2.38;1.50;;;23.60;58.00;;;;;;5006279;28;20037;-77
2022/08/11 08:45:33;;;;;;;4.40;2.00;;;23.80;57.00;;;;;;5009656;28;20030;-77
2022/08/11 08:48:10;;;;;;;2.33;1.67;;;24.00;57.40;;;;;;5009218;28;20022;-77
2022/08/11 08:53:33;;;;;;;3.35;1.75;;;24.20;56.30;;;;;;5009435;28;20025;-76
2022/08/11 08:56:00;;;;;;;7.15;1.92;;;24.30;56.00;;;;;;5023800;28;20379;-76
2022/08/11 08:58:28;;;;;;;2.05;1.33;;;24.40;55.40;;;;;;5008993;28;20066;-77
2022/08/11 09:00:58;;;;;;;2.22;1.90;;;24.50;55.50;;;;;;5025380;28;20202;-76
2022/08/11 09:03:25;;;;;;;8.15;1.98;;;24.60;54.30;;;;;;5007367;28;20021;-77
2022/08/11 09:05:54;;;;;;;4.15;1.77;;;24.60;54.20;;;;;;5007816;28;20494;-77
2022/08/11 09:08:22;;;;;;;2.05;1.75;;;24.60;53.80;;;;;;5007324;28;20022;-77
2022/08/11 09:11:48;;;;;;;6.32;1.85;;;24.60;53.60;;;;;;5010323;28;20039;-77
2022/08/11 09:13:35;;;;;;;3.80;1.67;;;24.60;53.90;;;;;;5010059;28;20033;-76
2022/08/11 09:16:04;;;;;;;3.65;1.63;;;24.60;53.30;;;;;;5006442;28;20029;-78
2022/08/11 09:18:31;;;;;;;3.00;2.05;;;24.70;53.40;;;;;;5007240;28;20026;-77
2022/08/11 09:21:01;;;;;;;3.72;1.50;;;24.70;52.90;;;;;;5011996;28;20029;-75
2022/08/11 09:28:57;;;;;;;4.53;2.10;;;24.80;52.40;;;;;;5014420;28;20041;-76
2022/08/11 09:31:25;;;;;;;3.00;2.05;;;24.80;52.90;;;;;;5010036;28;20030;-75
2022/08/11 09:33:53;;;;;;;5.35;1.67;;;24.90;52.60;;;;;;5003148;28;20038;-75
2022/08/11 09:41:49;;;;;;;4.25;1.98;;;25.00;51.60;;;;;;5006524;28;20025;-77
2022/08/11 09:47:01;;;;;;;2.28;1.63;;;25.10;52.30;;;;;;5007365;28;20073;-77
2022/08/11 09:49:28;;;;;;;5.53;1.42;;;25.20;52.20;;;;;;5006467;28;20076;-76
2022/08/11 09:51:54;;;;;;;6.22;2.20;;;25.20;52.00;;;;;;5010632;28;20045;-77
2022/08/11 09:54:22;;;;;;;4.82;1.83;;;25.20;51.90;;;;;;5000658;28;20096;-76
2022/08/11 09:59:35;;;;;;;4.25;1.65;;;25.20;50.70;;;;;;5002481;28;20025;-76
2022/08/11 10:02:03;;;;;;;4.53;1.77;;;25.20;50.60;;;;;;5006430;28;20411;-76
2022/08/11 10:04:41;;;;;;;2.40;1.42;;;25.10;50.50;;;;;;5005730;28;20026;-77
2022/08/11 10:07:09;;;;;;;3.20;1.58;;;25.10;50.80;;;;;;5006890;28;20061;-77
2022/08/11 10:09:37;;;;;;;7.40;1.92;;;25.20;50.90;;;;;;5006755;28;20033;-77
2022/08/11 10:12:08;;;;;;;2.53;1.45;;;25.30;50.30;;;;;;5004307;28;20041;-77
2022/08/11 10:17:21;;;;;;;3.78;1.83;;;25.30;49.60;;;;;;5005474;28;20068;-77
2022/08/11 10:19:49;;;;;;;5.15;1.67;;;25.40;50.80;;;;;;4999738;28;20018;-77
2022/08/11 10:27:57;;;;;;;3.03;1.80;;;25.60;50.50;;;;;;5012151;28;20401;-77
2022/08/11 10:36:04;;;;;;;5.57;1.67;;;25.80;50.20;;;;;;5005566;28;20394;-77
2022/08/11 10:38:31;;;;;;;9.15;2.30;;;25.80;50.20;;;;;;5008487;28;20414;-78
2022/08/11 10:43:42;;;;;;;3.67;1.65;;;25.80;50.10;;;;;;5004803;28;20442;-76
2022/08/11 10:48:56;;;;;;;3.35;1.60;;;25.80;49.70;;;;;;5006480;28;20053;-77
2022/08/11 10:59:41;;;;;;;3.15;1.90;;;25.90;49.60;;;;;;5011119;28;20449;-77
2022/08/11 11:02:12;;;;;;;5.93;1.80;;;25.90;49.10;;;;;;5005035;28;20034;-77
2022/08/11 11:04:43;;;;;;;3.53;1.38;;;26.00;48.90;;;;;;5010193;28;20033;-78
2022/08/11 11:07:18;;;;;;;6.78;2.63;;;26.00;49.20;;;;;;5006459;28;20029;-78
2022/08/11 11:09:49;;;;;;;1.90;1.35;;;26.00;49.20;;;;;;5003132;28;20022;-78
2022/08/11 11:18:10;;;;;;;3.30;1.50;;;26.00;48.50;;;;;;5003802;28;20403;-77
2022/08/11 11:20:46;;;;;;;2.28;1.42;;;26.00;48.10;;;;;;4999511;28;20030;-78
2022/08/11 11:23:26;;;;;;;4.40;1.40;;;26.00;48.20;;;;;;5031583;28;20422;-77
2022/08/11 11:26:09;;;;;;;4.15;1.67;;;26.00;48.60;;;;;;5003118;28;20091;-77
2022/08/11 11:28:57;;;;;;;5.87;1.53;;;26.10;49.20;;;;;;5001195;28;20022;-77
2022/08/11 11:31:36;;;;;;;3.40;1.50;;;26.10;49.20;;;;;;5006761;28;20267;-77
2022/08/11 11:34:29;;;;;;;1.20;1.10;;;26.20;48.50;;;;;;5004137;28;20031;-77
2022/08/11 11:37:00;;;;;;;2.10;1.42;;;26.20;47.80;;;;;;5004209;28;20118;-77
2022/08/11 11:39:27;;;;;;;3.03;1.50;;;26.30;48.80;;;;;;5005726;28;20391;-77
2022/08/11 11:41:55;;;;;;;7.13;1.70;;;26.30;49.00;;;;;;5004644;28;20022;-77
2022/08/11 11:44:22;;;;;;;2.85;1.88;;;26.20;49.00;;;;;;5006422;28;20022;-77
2022/08/11 11:46:49;;;;;;;4.68;2.15;;;26.20;48.40;;;;;;5005080;28;20068;-78
2022/08/11 11:49:22;;;;;;;4.68;1.55;;;26.20;48.10;;;;;;5006579;28;20045;-78
2022/08/11 11:51:51;;;;;;;4.60;1.77;;;26.30;47.40;;;;;;5001830;28;20056;-78
2022/08/11 11:54:22;;;;;;;4.82;1.52;;;26.30;47.90;;;;;;5039003;28;20026;-78
2022/08/11 11:56:52;;;;;;;3.42;1.60;;;26.30;48.40;;;;;;5009957;28;20066;-77
2022/08/11 12:02:06;;;;;;;2.03;1.50;;;26.40;48.50;;;;;;4987086;28;20130;-71
2022/08/11 12:04:35;;;;;;;3.28;1.40;;;26.40;48.30;;;;;;4986532;28;20034;-71
2022/08/11 12:09:50;;;;;;;3.75;1.80;;;26.40;47.80;;;;;;4977509;28;20050;-72
2022/08/11 12:15:00;;;;;;;2.78;1.40;;;26.40;47.80;;;;;;4962335;28;20523;-72
2022/08/11 12:17:26;;;;;;;2.13;1.35;;;26.50;48.00;;;;;;4964582;28;20471;-71
2022/08/11 12:19:52;;;;;;;4.38;1.63;;;26.50;47.80;;;;;;4964971;28;20085;-71
2022/08/11 12:27:49;;;;;;;1.88;1.40;;;26.60;47.90;;;;;;4968330;28;20030;-70
2022/08/11 12:30:15;;;;;;;2.80;1.63;;;26.60;47.40;;;;;;4966757;28;20026;-72
2022/08/11 12:32:42;;;;;;;6.85;1.98;;;26.60;46.20;;;;;;4966705;28;20398;-72
2022/08/11 12:35:08;;;;;;;2.35;1.60;;;26.70;46.00;;;;;;4967445;28;20026;-73
2022/08/11 12:37:42;;;;;;;2.45;1.42;;;26.70;46.00;;;;;;4967788;28;20038;-72
2022/08/11 12:45:46;;;;;;;2.40;1.58;;;26.80;46.70;;;;;;4967260;28;20034;-72
2022/08/11 12:54:14;;;;;;;6.03;1.67;;;26.80;47.60;;;;;;4966423;28;20123;-72
2022/08/11 13:05:21;;;;;;;2.97;1.55;;;26.90;47.10;;;;;;4964089;28;20038;-71
2022/08/11 13:07:48;;;;;;;2.92;1.60;;;26.90;46.80;;;;;;4965555;28;20479;-74
2022/08/11 13:12:46;;;;;;;2.03;1.52;;;26.90;47.00;;;;;;4962958;28;20114;-73
2022/08/11 13:13:03;;;;;;;3.60;1.45;;;26.90;47.20;;;;;;4968335;28;20034;-73
2022/08/11 13:15:30;;;;;;;4.50;1.98;;;26.90;47.00;;;;;;4963048;28;20061;-73
2022/08/11 13:17:57;;;;;;;2.95;1.70;;;27.00;47.50;;;;;;4963409;28;20433;-72
2022/08/11 13:20:24;;;;;;;2.78;1.75;;;27.00;47.70;;;;;;4966464;28;20435;-75
2022/08/11 13:22:55;;;;;;;2.33;1.70;;;27.00;47.70;;;;;;4966863;28;20030;-75
2022/08/11 13:25:24;;;;;;;3.08;1.70;;;27.00;46.50;;;;;;4964482;28;20037;-74
2022/08/11 13:27:51;;;;;;;1.92;1.42;;;27.00;46.30;;;;;;4966862;28;20376;-74
2022/08/11 13:33:03;;;;;;;3.58;1.80;;;27.00;46.30;;;;;;4968890;28;20033;-74
2022/08/11 13:35:33;;;;;;;2.53;1.70;;;27.00;46.40;;;;;;4966816;28;20448;-74
2022/08/11 13:38:01;;;;;;;4.78;1.75;;;27.10;46.60;;;;;;4968904;28;20027;-74
2022/08/11 13:40:28;;;;;;;3.13;1.63;;;27.10;46.40;;;;;;4968087;28;20019;-73
2022/08/11 13:42:56;;;;;;;7.03;1.77;;;27.10;46.60;;;;;;4961268;28;20038;-72
2022/08/11 13:45:23;;;;;;;2.40;1.77;;;27.20;46.50;;;;;;4968772;28;20081;-74
2022/08/11 13:47:53;;;;;;;2.95;1.60;;;27.20;47.20;;;;;;4967441;28;20053;-73
2022/08/11 13:50:19;;;;;;;2.30;1.73;;;27.20;47.60;;;;;;4966860;28;20555;-73
2022/08/11 13:52:47;;;;;;;5.47;1.98;;;27.30;47.90;;;;;;4964672;28;20019;-74
2022/08/11 13:55:22;;;;;;;5.55;2.60;;;27.30;47.90;;;;;;4969883;28;20098;-73
2022/08/11 13:57:52;;;;;;;4.97;1.70;;;27.30;47.90;;;;;;4965108;28;20023;-76
2022/08/11 14:00:19;;;;;;;3.38;1.80;;;27.20;46.20;;;;;;4968649;28;20117;-75
2022/08/11 14:02:48;;;;;;;3.85;1.50;;;27.20;46.10;;;;;;4969162;28;20472;-77
2022/08/11 14:05:21;;;;;;;6.60;1.73;;;27.30;46.40;;;;;;4961463;28;20019;-77
2022/08/11 14:07:53;;;;;;;3.30;1.60;;;27.30;47.40;;;;;;4965504;28;20106;-76
2022/08/11 14:10:23;;;;;;;3.42;1.45;;;27.20;47.20;;;;;;4972590;28;20562;-76
2022/08/11 14:16:06;;;;;;;3.63;1.20;;;27.30;46.30;;;;;;4970817;28;20045;-75
2022/08/11 14:18:33;;;;;;;3.60;2.00;;;27.30;47.00;;;;;;4983359;28;20026;-75
2022/08/11 14:23:49;;;;;;;2.45;1.95;;;27.30;47.40;;;;;;4964532;28;20022;-74
2022/08/11 14:26:27;;;;;;;9.90;2.47;;;27.30;47.40;;;;;;4963877;28;20487;-73
2022/08/11 14:29:01;;;;;;;2.47;1.65;;;27.40;47.80;;;;;;4961918;28;20031;-75
2022/08/11 14:31:28;;;;;;;2.45;1.50;;;27.40;47.70;;;;;;4964924;28;20019;-73
2022/08/11 14:33:56;;;;;;;3.47;1.73;;;27.30;47.20;;;;;;4971697;28;20042;-75
2022/08/11 14:36:24;;;;;;;5.57;1.65;;;27.30;46.80;;;;;;4969798;28;20070;-74
2022/08/11 14:38:52;;;;;;;10.02;1.70;;;27.40;46.80;;;;;;4986476;28;20380;-75
2022/08/11 14:47:05;;;;;;;6.43;1.58;;;27.40;48.20;;;;;;4968070;28;20086;-70
2022/08/11 14:49:34;;;;;;;1.83;1.52;;;27.40;48.20;;;;;;4970858;28;20026;-70
2022/08/11 14:52:06;;;;;;;3.95;2.33;;;27.40;48.70;;;;;;4964550;28;20113;-72
2022/08/11 14:57:35;;;;;;;3.13;1.70;;;27.40;47.00;;;;;;4965772;28;20499;-77
2022/08/11 15:00:03;;;;;;;2.72;1.75;;;27.40;46.90;;;;;;4967527;28;20118;-68
2022/08/11 15:05:14;;;;;;;3.53;1.98;;;27.40;47.00;;;;;;4966346;28;20057;-68
2022/08/11 15:07:40;;;;;;;5.10;1.70;;;27.40;47.20;;;;;;4970081;28;20026;-68
2022/08/11 15:10:08;;;;;;;4.63;1.90;;;27.40;46.90;;;;;;4962838;28;20034;-67
2022/08/11 15:12:38;;;;;;;3.03;1.63;;;27.40;46.60;;;;;;4965831;28;20022;-67
2022/08/11 15:17:52;;;;;;;3.63;2.00;;;27.50;46.70;;;;;;4969942;28;20041;-69
2022/08/11 15:26:15;;;;;;;4.03;1.77;;;27.50;46.40;;;;;;4966426;28;20037;-69
2022/08/11 15:37:25;;;;;;;3.10;1.85;;;27.50;46.10;;;;;;4974727;28;20116;-67
2022/08/11 15:45:47;;;;;;;3.78;1.75;;;27.60;46.90;;;;;;4971850;28;20078;-73
2022/08/11 15:48:18;;;;;;;3.83;1.58;;;27.50;45.80;;;;;;4974967;28;20494;-74
2022/08/11 15:50:51;;;;;;;4.65;1.73;;;27.50;45.30;;;;;;4977468;28;20019;-75
2022/08/11 15:53:22;;;;;;;;;;;27.60;45.10;;;;;;4977402;28;20022;-75
2022/08/11 15:55:48;;;;;;;3.55;2.08;;;27.50;44.80;;;;;;4973626;28;19933;-75
2022/08/11 16:04:11;;;;;;;5.20;1.80;;;27.50;44.70;;;;;;4972050;28;20608;-75
2022/08/11 16:06:51;;;;;;;2.78;1.30;;;27.50;44.90;;;;;;4973526;28;20035;-67
2022/08/11 16:09:47;;;;;;;2.25;1.50;;;27.50;45.70;;;;;;4969454;28;20491;-70
2022/08/11 16:12:16;;;;;;;2.75;1.67;;;27.50;45.60;;;;;;4971632;28;20387;-68
2022/08/11 16:17:43;;;;;;;6.40;1.70;;;27.40;45.40;;;;;;4972488;28;20184;-68
2022/08/11 16:20:11;;;;;;;4.03;1.58;;;27.40;45.50;;;;;;4970293;28;20031;-68
2022/08/11 16:22:43;;;;;;;2.22;1.40;;;27.40;45.50;;;;;;4977223;28;20037;-68
2022/08/11 16:25:13;;;;;;;5.65;1.60;;;27.40;45.00;;;;;;4969043;28;20420;-70
2022/08/11 16:27:42;;;;;;;2.35;1.85;;;27.30;45.30;;;;;;4969506;28;20058;-69
2022/08/11 16:30:09;;;;;;;2.25;1.55;;;27.30;45.00;;;;;;4974198;28;20383;-69
2022/08/11 16:32:38;;;;;;;5.25;2.28;;;27.30;44.80;;;;;;4971243;28;20018;-69
2022/08/11 16:40:42;;;;;;;2.00;1.80;;;27.30;43.80;;;;;;4972266;28;20069;-70
2022/08/11 16:48:47;;;;;;;3.05;1.88;;;27.20;43.50;;;;;;4973423;28;20034;-69
2022/08/11 16:51:13;;;;;;;1.65;1.20;;;27.20;43.60;;;;;;4971103;28;20022;-72
2022/08/11 16:53:43;;;;;;;2.63;1.30;;;27.20;43.50;;;;;;4966472;28;20061;-70
2022/08/11 16:56:15;;;;;;;5.32;1.58;;;27.10;43.30;;;;;;4969765;28;20431;-70
2022/08/11 17:01:27;;;;;;;2.75;1.50;;;27.10;43.60;;;;;;4968199;28;20041;-69
2022/08/11 17:18:02;;;;;;;3.25;1.67;;;27.00;44.00;;;;;;4972006;28;20049;-70
2022/08/11 17:20:29;;;;;;;3.17;1.48;;;26.90;43.90;;;;;;4964074;28;20034;-68
2022/08/11 17:25:43;;;;;;;3.10;1.70;;;26.90;43.90;;;;;;4969506;28;20029;-70
2022/08/11 17:28:12;;;;;;;3.80;1.33;;;26.80;43.90;;;;;;4969428;28;20154;-70
2022/08/11 17:36:13;;;;;;;5.20;1.50;;;26.80;43.40;;;;;;4972275;28;20556;-69
2022/08/11 17:38:39;;;;;;;6.20;1.77;;;26.70;43.80;;;;;;4972369;28;20023;-69
2022/08/11 17:49:25;;;;;;;5.50;1.55;;;26.60;42.40;;;;;;4972965;28;20114;-69
2022/08/11 18:00:10;;;;;;;5.45;2.15;;;26.50;43.30;;;;;;4970771;28;20403;-73
2022/08/11 18:05:29;;;;;;;6.10;2.00;;;26.40;43.90;;;;;;4968154;28;20038;-73
